createdAt,value
2022-09-14T00:00:07.100Z,98465.19
2022-09-14T00:01:26.838Z,98473.41
2022-09-14T00:02:31.034Z,98465.72
2022-09-14T00:03:35.416Z,98469.25
2022-09-14T00:04:39.426Z,98455.13
2022-09-14T00:05:44.152Z,98462.19
2022-09-14T00:06:49.285Z,98463.03
2022-09-14T00:07:52.914Z,98465.72
2022-09-14T00:08:59.150Z,98462.19
2022-09-14T00:10:03.110Z,98464.88
2022-09-14T00:11:15.459Z,98461.50
2022-09-14T00:12:20.357Z,98431.16
2022-09-14T00:13:24.834Z,98461.69
2022-09-14T00:14:28.620Z,98461.19
2022-09-14T00:15:36.451Z,98456.47
2022-09-14T00:16:43.483Z,98464.06
2022-09-14T00:17:47.883Z,98439.56
2022-09-14T00:18:54.067Z,98456.50
2022-09-14T00:19:57.930Z,98454.47
2022-09-14T00:21:05.185Z,98463.53
2022-09-14T00:22:09.264Z,98466.56
2022-09-14T00:23:12.844Z,98461.34
2022-09-14T00:24:16.386Z,98435.72
2022-09-14T00:25:20.369Z,98459.84
2022-09-14T00:26:25.815Z,98453.81
2022-09-14T00:27:29.851Z,98463.84
2022-09-14T00:28:48.553Z,98456.81
2022-09-14T00:29:53.178Z,98465.88
2022-09-14T00:30:56.865Z,98463.19
2022-09-14T00:32:00.773Z,98467.06
2022-09-14T00:33:04.500Z,98459.84
2022-09-14T00:34:14.255Z,98443.25
2022-09-14T00:35:19.393Z,98450.16
2022-09-14T00:36:29.412Z,98455.50
2022-09-14T00:37:33.560Z,98462.03
2022-09-14T00:38:39.232Z,98462.03
2022-09-14T00:39:46.161Z,98462.19
2022-09-14T00:41:04.457Z,98450.16
2022-09-14T00:42:15.411Z,98456.81
2022-09-14T00:43:21.103Z,98465.72
2022-09-14T00:44:28.230Z,98455.81
2022-09-14T00:45:32.460Z,98438.22
2022-09-14T00:46:47.538Z,98420.31
2022-09-14T00:47:55.118Z,98418.78
2022-09-14T00:49:07.973Z,98428.19
2022-09-14T00:50:14.010Z,98449.78
2022-09-14T00:51:21.514Z,98410.25
2022-09-14T00:52:31.299Z,98434.19
2022-09-14T00:53:35.679Z,98408.22
2022-09-14T00:54:47.343Z,98434.56
2022-09-14T00:55:54.580Z,98443.75
2022-09-14T00:57:04.343Z,98460.00
2022-09-14T00:58:16.676Z,98444.09
2022-09-14T00:59:39.444Z,98428.31
2022-09-14T01:00:44.827Z,98440.91
2022-09-14T01:01:50.902Z,98416.94
2022-09-14T01:03:02.433Z,98410.38
2022-09-14T01:04:09.511Z,98415.59
2022-09-14T01:05:15.091Z,98417.59
2022-09-14T01:06:39.568Z,98456.13
2022-09-14T01:08:11.605Z,98445.09
2022-09-14T01:10:08.236Z,98446.78
2022-09-14T01:11:51.834Z,98439.38
2022-09-14T01:13:32.783Z,98437.72
2022-09-14T01:14:59.770Z,98429.97
2022-09-14T01:17:11.108Z,98444.75
2022-09-14T01:18:44.653Z,98442.72
2022-09-14T01:20:11.047Z,98445.94
2022-09-14T01:21:27.060Z,98443.91
2022-09-14T01:22:59.103Z,98440.03
2022-09-14T01:24:26.852Z,98444.22
2022-09-14T01:26:04.224Z,98446.06
2022-09-14T01:27:31.396Z,98428.31
2022-09-14T01:28:50.391Z,98435.03
2022-09-14T01:30:05.513Z,98435.69
2022-09-14T01:31:41.262Z,98445.41
2022-09-14T01:33:03.853Z,98443.72
2022-09-14T01:34:25.659Z,98432.81
2022-09-14T01:35:45.793Z,98437.84
2022-09-14T01:36:59.461Z,98418.25
2022-09-14T01:38:31.900Z,98420.44
2022-09-14T01:39:38.541Z,98420.25
2022-09-14T01:40:50.532Z,98427.47
2022-09-14T01:41:56.628Z,98421.44
2022-09-14T01:43:18.260Z,98421.94
2022-09-14T01:44:34.713Z,98422.44
2022-09-14T01:45:53.021Z,98420.44
2022-09-14T01:47:09.200Z,98417.94
2022-09-14T01:48:18.351Z,98420.09
2022-09-14T01:49:52.899Z,98421.09
2022-09-14T01:51:04.516Z,98419.59
2022-09-14T01:52:27.478Z,98420.25
2022-09-14T01:53:46.681Z,98420.44
2022-09-14T01:55:10.035Z,98419.59
2022-09-14T01:56:32.455Z,98421.28
2022-09-14T01:57:58.987Z,98414.56
2022-09-14T01:59:18.356Z,98410.91
2022-09-14T02:00:23.107Z,98409.06
2022-09-14T02:01:54.750Z,98414.25
2022-09-14T02:03:14.076Z,98407.53
2022-09-14T02:04:31.510Z,98398.16
2022-09-14T02:05:57.911Z,98418.25
2022-09-14T02:07:02.269Z,98406.84
2022-09-14T02:08:06.156Z,98407.88
2022-09-14T02:09:16.556Z,98406.84
2022-09-14T02:10:20.544Z,98400.66
2022-09-14T02:11:24.330Z,98399.00
2022-09-14T02:12:28.489Z,98392.44
2022-09-14T02:13:32.676Z,98386.75
2022-09-14T02:14:36.644Z,98388.59
2022-09-14T02:15:40.407Z,98386.22
2022-09-14T02:16:46.458Z,98398.28
2022-09-14T02:17:50.675Z,98395.78
2022-09-14T02:18:54.545Z,98401.97
2022-09-14T02:20:02.212Z,98389.91
2022-09-14T02:21:14.690Z,98386.88
2022-09-14T02:22:18.497Z,98397.41
2022-09-14T02:23:50.770Z,98378.00
2022-09-14T02:24:54.974Z,98391.22
2022-09-14T02:26:07.743Z,98355.34
2022-09-14T02:27:24.347Z,98364.41
2022-09-14T02:28:53.018Z,98396.25
2022-09-14T02:30:12.303Z,98360.91
2022-09-14T02:32:15.238Z,98391.06
2022-09-14T02:33:57.353Z,98359.88
2022-09-14T02:35:42.985Z,98359.22
2022-09-14T02:37:28.321Z,98379.66
2022-09-14T02:38:45.959Z,98366.56
2022-09-14T02:40:19.038Z,98363.88
2022-09-14T02:41:42.273Z,98392.88
2022-09-14T02:43:15.154Z,98351.16
2022-09-14T02:44:47.313Z,98360.88
2022-09-14T02:46:12.492Z,98394.06
2022-09-14T02:47:40.554Z,98372.59
2022-09-14T02:49:22.375Z,98394.91
2022-09-14T02:50:36.966Z,98391.56
2022-09-14T02:52:03.536Z,98388.88
2022-09-14T02:53:32.140Z,98377.63
2022-09-14T02:54:59.241Z,98387.19
2022-09-14T02:56:09.826Z,98376.97
2022-09-14T02:57:14.311Z,98385.50
2022-09-14T02:58:18.086Z,98386.19
2022-09-14T02:59:21.918Z,98386.84
2022-09-14T03:00:25.725Z,98375.94
2022-09-14T03:01:30.428Z,98379.63
2022-09-14T03:02:34.195Z,98378.78
2022-09-14T03:03:38.079Z,98376.75
2022-09-14T03:04:42.349Z,98377.44
2022-09-14T03:05:46.602Z,98371.56
2022-09-14T03:06:50.223Z,98377.75
2022-09-14T03:07:54.265Z,98364.50
2022-09-14T03:08:58.737Z,98380.09
2022-09-14T03:10:02.502Z,98374.91
2022-09-14T03:11:07.094Z,98368.38
2022-09-14T03:12:11.099Z,98367.25
2022-09-14T03:13:14.986Z,98373.56
2022-09-14T03:14:18.618Z,98357.66
2022-09-14T03:15:22.476Z,98368.22
2022-09-14T03:16:26.150Z,98361.88
2022-09-14T03:17:29.757Z,98357.84
2022-09-14T03:18:35.087Z,98369.09
2022-09-14T03:19:38.699Z,98364.22
2022-09-14T03:20:43.081Z,98361.34
2022-09-14T03:21:46.677Z,98352.13
2022-09-14T03:22:50.612Z,98364.88
2022-09-14T03:23:55.723Z,98370.41
2022-09-14T03:24:59.262Z,98374.91
2022-09-14T03:26:11.331Z,98369.91
2022-09-14T03:27:15.202Z,98376.09
2022-09-14T03:28:18.716Z,98373.56
2022-09-14T03:29:22.648Z,98366.03
2022-09-14T03:30:27.840Z,98375.41
2022-09-14T03:31:31.826Z,98372.88
2022-09-14T03:32:35.882Z,98373.72
2022-09-14T03:33:40.049Z,98372.22
2022-09-14T03:34:43.831Z,98376.56
2022-09-14T03:35:47.408Z,98371.69
2022-09-14T03:36:51.133Z,98370.56
2022-09-14T03:37:54.760Z,98370.69
2022-09-14T03:39:01.880Z,98369.53
2022-09-14T03:40:07.966Z,98365.66
2022-09-14T03:41:13.357Z,98344.88
2022-09-14T03:42:18.539Z,98380.22
2022-09-14T03:43:22.573Z,98362.31
2022-09-14T03:44:26.218Z,98377.19
2022-09-14T03:45:29.981Z,98366.81
2022-09-14T03:46:34.205Z,98367.78
2022-09-14T03:47:38.530Z,98367.97
2022-09-14T03:48:42.874Z,98368.13
2022-09-14T03:49:46.421Z,98362.78
2022-09-14T03:50:50.125Z,98359.44
2022-09-14T03:51:59.029Z,98366.47
2022-09-14T03:53:04.878Z,98355.38
2022-09-14T03:54:08.746Z,98357.59
2022-09-14T03:55:13.851Z,98344.47
2022-09-14T03:56:21.237Z,98362.25
2022-09-14T03:57:24.783Z,98350.66
2022-09-14T03:58:32.526Z,98359.06
2022-09-14T03:59:39.389Z,98366.47
2022-09-14T04:00:46.747Z,98370.81
2022-09-14T04:01:50.550Z,98360.56
2022-09-14T04:02:54.304Z,98367.47
2022-09-14T04:03:58.120Z,98371.97
2022-09-14T04:05:01.715Z,98353.38
2022-09-14T04:06:08.581Z,98365.44
2022-09-14T04:07:16.106Z,98373.16
2022-09-14T04:08:19.712Z,98352.72
2022-09-14T04:09:33.078Z,98364.28
2022-09-14T04:10:36.595Z,98371.31
2022-09-14T04:11:40.292Z,98370.47
2022-09-14T04:12:43.918Z,98371.47
2022-09-14T04:13:48.501Z,98371.47
2022-09-14T04:14:52.416Z,98371.81
2022-09-14T04:16:02.813Z,98371.13
2022-09-14T04:17:06.686Z,98374.66
2022-09-14T04:18:10.431Z,98369.44
2022-09-14T04:19:14.019Z,98367.59
2022-09-14T04:20:20.905Z,98364.09
2022-09-14T04:21:26.225Z,98362.25
2022-09-14T04:22:29.858Z,98359.91
2022-09-14T04:23:36.582Z,98371.44
2022-09-14T04:24:51.285Z,98360.25
2022-09-14T04:25:55.469Z,98368.75
2022-09-14T04:26:59.093Z,98363.41
2022-09-14T04:28:19.623Z,98361.56
2022-09-14T04:29:24.544Z,98365.78
2022-09-14T04:30:28.487Z,98362.25
2022-09-14T04:31:33.448Z,98365.63
2022-09-14T04:32:37.280Z,98358.72
2022-09-14T04:33:43.720Z,98363.94
2022-09-14T04:34:49.371Z,98343.81
2022-09-14T04:36:11.817Z,98362.94
2022-09-14T04:37:15.489Z,98362.09
2022-09-14T04:38:19.102Z,98358.44
2022-09-14T04:39:22.973Z,98354.56
2022-09-14T04:40:29.157Z,98362.97
2022-09-14T04:41:33.286Z,98370.66
2022-09-14T04:42:36.874Z,98364.47
2022-09-14T04:43:41.935Z,98358.13
2022-09-14T04:44:45.953Z,98365.50
2022-09-14T04:45:50.106Z,98367.03
2022-09-14T04:46:54.111Z,98360.31
2022-09-14T04:47:57.695Z,98346.56
2022-09-14T04:49:01.606Z,98366.53
2022-09-14T04:50:06.192Z,98365.69
2022-09-14T04:51:19.838Z,98365.34
2022-09-14T04:52:24.765Z,98375.25
2022-09-14T04:53:28.296Z,98355.63
2022-09-14T04:54:31.982Z,98378.59
2022-09-14T04:55:36.401Z,98374.09
2022-09-14T04:56:42.080Z,98376.25
2022-09-14T04:57:46.312Z,98375.28
2022-09-14T04:59:01.874Z,98374.44
2022-09-14T05:00:06.326Z,98381.59
2022-09-14T05:01:37.022Z,98369.56
2022-09-14T05:02:42.929Z,98381.59
2022-09-14T05:03:47.114Z,98361.00
2022-09-14T05:04:51.189Z,98377.13
2022-09-14T05:05:54.820Z,98366.53
2022-09-14T05:06:58.728Z,98369.59
2022-09-14T05:08:02.959Z,98365.72
2022-09-14T05:09:15.764Z,98362.91
2022-09-14T05:10:19.565Z,98363.22
2022-09-14T05:11:28.049Z,98364.06
2022-09-14T05:12:31.888Z,98353.53
2022-09-14T05:13:36.379Z,98357.88
2022-09-14T05:14:39.965Z,98358.06
2022-09-14T05:15:43.604Z,98364.44
2022-09-14T05:16:48.186Z,98372.69
2022-09-14T05:17:51.679Z,98365.31
2022-09-14T05:19:01.457Z,98372.69
2022-09-14T05:20:06.670Z,98357.97
2022-09-14T05:21:14.807Z,98365.00
2022-09-14T05:22:22.465Z,98369.03
2022-09-14T05:23:26.150Z,98373.88
2022-09-14T05:24:29.863Z,98358.78
2022-09-14T05:25:33.516Z,98361.31
2022-09-14T05:26:37.338Z,98373.03
2022-09-14T05:27:40.908Z,98362.31
2022-09-14T05:28:51.078Z,98373.72
2022-09-14T05:29:54.732Z,98369.69
2022-09-14T05:30:58.693Z,98364.84
2022-09-14T05:32:03.769Z,98366.16
2022-09-14T05:33:07.455Z,98354.75
2022-09-14T05:34:13.170Z,98360.94
2022-09-14T05:35:17.124Z,98357.09
2022-09-14T05:36:21.747Z,98362.13
2022-09-14T05:37:25.624Z,98358.59
2022-09-14T05:38:34.911Z,98350.88
2022-09-14T05:39:39.072Z,98358.06
2022-09-14T05:40:43.470Z,98341.84
2022-09-14T05:41:51.911Z,98358.41
2022-09-14T05:42:59.062Z,98347.19
2022-09-14T05:44:18.316Z,98343.50
2022-09-14T05:45:22.944Z,98331.25
2022-09-14T05:46:27.529Z,98335.44
2022-09-14T05:47:34.911Z,98350.34
2022-09-14T05:48:43.945Z,98345.97
2022-09-14T05:49:48.758Z,98358.53
2022-09-14T05:51:03.773Z,98346.78
2022-09-14T05:52:08.332Z,98337.06
2022-09-14T05:53:12.691Z,98355.00
2022-09-14T05:54:16.448Z,98311.25
2022-09-14T05:55:20.319Z,98301.16
2022-09-14T05:56:28.124Z,98339.16
2022-09-14T05:57:34.691Z,98348.34
2022-09-14T05:58:40.469Z,98345.47
2022-09-14T05:59:44.539Z,98350.97
2022-09-14T06:00:48.490Z,98357.94
2022-09-14T06:01:52.412Z,98354.19
2022-09-14T06:02:57.066Z,98343.09
2022-09-14T06:04:02.615Z,98338.66
2022-09-14T06:05:06.711Z,98328.88
2022-09-14T06:06:14.067Z,98339.81
2022-09-14T06:07:19.084Z,98342.34
2022-09-14T06:08:24.742Z,98347.19
2022-09-14T06:09:33.087Z,98330.53
2022-09-14T06:10:37.037Z,98332.25
2022-09-14T06:11:40.733Z,98331.47
2022-09-14T06:12:44.452Z,98333.84
2022-09-14T06:13:49.749Z,98338.16
2022-09-14T06:14:53.283Z,98340.75
2022-09-14T06:16:01.903Z,98342.81
2022-09-14T06:17:05.895Z,98341.69
2022-09-14T06:18:09.980Z,98336.31
2022-09-14T06:19:15.550Z,98345.91
2022-09-14T06:20:19.179Z,98346.69
2022-09-14T06:21:23.789Z,98346.06
2022-09-14T06:22:27.482Z,98346.22
2022-09-14T06:23:33.006Z,98346.66
2022-09-14T06:24:37.632Z,98343.94
2022-09-14T06:25:41.472Z,98338.28
2022-09-14T06:26:45.486Z,98337.91
2022-09-14T06:27:49.332Z,98347.94
2022-09-14T06:28:53.688Z,98343.16
2022-09-14T06:29:57.559Z,98335.25
2022-09-14T06:31:07.794Z,98351.94
2022-09-14T06:32:11.547Z,98350.72
2022-09-14T06:33:16.490Z,98342.28
2022-09-14T06:34:25.709Z,98351.13
2022-09-14T06:35:32.622Z,98345.75
2022-09-14T06:36:37.630Z,98344.16
2022-09-14T06:37:41.491Z,98343.78
2022-09-14T06:38:46.850Z,98350.91
2022-09-14T06:39:52.216Z,98342.84
2022-09-14T06:40:59.325Z,98340.59
2022-09-14T06:42:03.296Z,98348.28
2022-09-14T06:43:07.083Z,98347.22
2022-09-14T06:44:11.349Z,98349.72
2022-09-14T06:45:15.340Z,98348.44
2022-09-14T06:46:23.879Z,98357.97
2022-09-14T06:47:33.417Z,98353.56
2022-09-14T06:48:44.913Z,98345.59
2022-09-14T06:49:50.077Z,98338.06
2022-09-14T06:50:54.147Z,98348.03
2022-09-14T06:51:58.133Z,98343.00
2022-09-14T06:53:02.725Z,98353.16
2022-09-14T06:54:07.380Z,98359.22
2022-09-14T06:55:10.933Z,98362.53
2022-09-14T06:56:15.463Z,98354.81
2022-09-14T06:57:19.491Z,98356.91
2022-09-14T06:58:23.290Z,98353.16
2022-09-14T06:59:27.135Z,98363.59
2022-09-14T07:00:31.549Z,98360.66
2022-09-14T07:01:36.565Z,98361.25
2022-09-14T07:02:40.509Z,98364.41
2022-09-14T07:03:45.133Z,98358.69
2022-09-14T07:04:48.649Z,98342.56
2022-09-14T07:05:52.166Z,98356.88
2022-09-14T07:06:55.683Z,98353.88
2022-09-14T07:07:59.565Z,98359.78
2022-09-14T07:09:05.227Z,98366.09
2022-09-14T07:10:09.040Z,98365.16
2022-09-14T07:11:15.043Z,98354.28
2022-09-14T07:12:19.544Z,98359.00
2022-09-14T07:13:23.974Z,98356.28
2022-09-14T07:14:32.111Z,98358.69
2022-09-14T07:15:38.708Z,98352.44
2022-09-14T07:16:42.641Z,98349.22
2022-09-14T07:17:47.274Z,98347.31
2022-09-14T07:18:58.172Z,98354.00
2022-09-14T07:20:03.592Z,98341.03
2022-09-14T07:21:13.165Z,98347.31
2022-09-14T07:22:16.758Z,98352.69
2022-09-14T07:23:21.034Z,98353.81
2022-09-14T07:24:24.885Z,98345.25
2022-09-14T07:25:28.550Z,98345.84
2022-09-14T07:26:44.780Z,98349.06
2022-09-14T07:27:48.356Z,98335.44
2022-09-14T07:28:59.769Z,98351.41
2022-09-14T07:30:03.801Z,98352.53
2022-09-14T07:31:21.767Z,98340.28
2022-09-14T07:32:26.057Z,98337.25
2022-09-14T07:33:30.282Z,98342.84
2022-09-14T07:34:33.993Z,98354.88
2022-09-14T07:35:37.894Z,98342.22
2022-09-14T07:36:43.143Z,98348.50
2022-09-14T07:37:47.021Z,98343.22
2022-09-14T07:38:53.006Z,98346.06
2022-09-14T07:39:57.556Z,98329.59
2022-09-14T07:41:01.989Z,98346.50
2022-09-14T07:42:06.542Z,98342.50
2022-09-14T07:43:10.697Z,98338.56
2022-09-14T07:44:17.493Z,98354.94
2022-09-14T07:45:22.169Z,98341.03
2022-09-14T07:46:27.216Z,98344.38
2022-09-14T07:47:32.169Z,98346.13
2022-09-14T07:48:37.067Z,98343.66
2022-09-14T07:49:40.863Z,98346.81
2022-09-14T07:50:44.517Z,98338.16
2022-09-14T07:51:49.399Z,98343.19
2022-09-14T07:52:53.066Z,98333.47
2022-09-14T07:53:57.269Z,98341.00
2022-09-14T07:55:01.030Z,98349.38
2022-09-14T07:56:05.835Z,98348.06
2022-09-14T07:57:09.789Z,98339.59
2022-09-14T07:58:16.138Z,98340.53
2022-09-14T07:59:36.919Z,98341.94
2022-09-14T08:00:41.216Z,98350.38
2022-09-14T08:01:47.074Z,98348.25
2022-09-14T08:02:56.626Z,98339.63
2022-09-14T08:04:05.540Z,98347.25
2022-09-14T08:05:09.879Z,98338.56
2022-09-14T08:06:20.801Z,98347.38
2022-09-14T08:07:25.018Z,98346.00
2022-09-14T08:08:38.585Z,98342.03
2022-09-14T08:09:42.325Z,98345.00
2022-09-14T08:10:46.204Z,98340.88
2022-09-14T08:11:49.769Z,98345.50
2022-09-14T08:12:55.450Z,98335.97
2022-09-14T08:14:13.049Z,98343.44
2022-09-14T08:15:16.975Z,98320.53
2022-09-14T08:16:23.033Z,98339.28
2022-09-14T08:17:26.960Z,98311.81
2022-09-14T08:18:32.511Z,98339.50
2022-09-14T08:19:36.673Z,98337.22
2022-09-14T08:20:40.497Z,98343.69
2022-09-14T08:21:47.077Z,98343.69
2022-09-14T08:22:51.406Z,98319.34
2022-09-14T08:23:55.689Z,98336.19
2022-09-14T08:24:59.546Z,98334.53
2022-09-14T08:26:10.169Z,98332.66
2022-09-14T08:27:17.086Z,98330.78
2022-09-14T08:28:21.137Z,98336.81
2022-09-14T08:29:25.037Z,98336.59
2022-09-14T08:30:28.944Z,98335.13
2022-09-14T08:31:39.033Z,98345.53
2022-09-14T08:32:43.046Z,98340.97
2022-09-14T08:33:50.450Z,98345.34
2022-09-14T08:34:54.072Z,98317.25
2022-09-14T08:35:58.407Z,98337.19
2022-09-14T08:37:02.629Z,98344.69
2022-09-14T08:38:06.180Z,98335.72
2022-09-14T08:39:14.080Z,98332.16
2022-09-14T08:40:18.309Z,98337.16
2022-09-14T08:41:28.684Z,98339.44
2022-09-14T08:42:32.867Z,98309.88
2022-09-14T08:43:39.901Z,98340.25
2022-09-14T08:44:50.768Z,98332.53
2022-09-14T08:46:04.703Z,98334.59
2022-09-14T08:47:16.684Z,98333.09
2022-09-14T08:48:47.527Z,98344.16
2022-09-14T08:50:06.462Z,98334.97
2022-09-14T08:51:10.347Z,98325.78
2022-09-14T08:52:38.814Z,98340.59
2022-09-14T08:53:44.261Z,98325.75
2022-09-14T08:54:54.267Z,98333.25
2022-09-14T08:56:13.368Z,98320.91
2022-09-14T08:57:29.444Z,98331.47
2022-09-14T08:59:06.300Z,98331.94
2022-09-14T09:00:18.933Z,98330.00
2022-09-14T09:02:02.374Z,98332.41
2022-09-14T09:03:57.182Z,98341.16
2022-09-14T09:05:22.290Z,98335.75
2022-09-14T09:06:57.680Z,98333.63
2022-09-14T09:08:29.847Z,98329.63
2022-09-14T09:09:47.638Z,98321.16
2022-09-14T09:10:55.279Z,98321.63
2022-09-14T09:12:00.900Z,98332.44
2022-09-14T09:13:07.491Z,98326.38
2022-09-14T09:14:50.735Z,98330.41
2022-09-14T09:16:01.103Z,98324.63
2022-09-14T09:17:24.144Z,98327.47
2022-09-14T09:19:01.623Z,98328.84
2022-09-14T09:20:35.061Z,98328.84
2022-09-14T09:21:48.507Z,98324.38
2022-09-14T09:23:22.925Z,98316.75
2022-09-14T09:24:54.787Z,98321.09
2022-09-14T09:26:05.944Z,98323.13
2022-09-14T09:27:15.720Z,98316.22
2022-09-14T09:28:23.287Z,98301.56
2022-09-14T09:29:27.249Z,98309.06
2022-09-14T09:30:31.155Z,98314.75
2022-09-14T09:31:43.882Z,98315.59
2022-09-14T09:32:47.686Z,98313.44
2022-09-14T09:33:51.503Z,98313.59
2022-09-14T09:34:55.225Z,98311.34
2022-09-14T09:36:00.056Z,98307.19
2022-09-14T09:37:04.561Z,98319.63
2022-09-14T09:38:17.759Z,98314.19
2022-09-14T09:39:21.414Z,98318.56
2022-09-14T09:40:54.160Z,98287.03
2022-09-14T09:42:08.400Z,98309.06
2022-09-14T09:43:38.513Z,98309.19
2022-09-14T09:45:03.223Z,98307.53
2022-09-14T09:46:08.482Z,98312.41
2022-09-14T09:47:12.448Z,98314.56
2022-09-14T09:48:20.671Z,98302.69
2022-09-14T09:49:39.145Z,98301.63
2022-09-14T09:51:09.821Z,98296.75
2022-09-14T09:52:17.657Z,98298.66
2022-09-14T09:53:24.083Z,98298.53
2022-09-14T09:54:32.671Z,98305.50
2022-09-14T09:55:40.184Z,98299.13
2022-09-14T09:56:54.287Z,98307.66
2022-09-14T09:57:58.011Z,98292.63
2022-09-14T09:59:02.250Z,98301.72
2022-09-14T10:00:25.223Z,98312.63
2022-09-14T10:01:36.241Z,98290.81
2022-09-14T10:02:42.054Z,98299.22
2022-09-14T10:04:20.088Z,98315.56
2022-09-14T10:05:32.730Z,98303.50
2022-09-14T10:06:49.964Z,98303.72
2022-09-14T10:08:11.691Z,98315.78
2022-09-14T10:09:23.506Z,98298.72
2022-09-14T10:10:36.181Z,98310.09
2022-09-14T10:11:40.115Z,98299.97
2022-09-14T10:12:53.544Z,98305.31
2022-09-14T10:13:58.201Z,98284.81
2022-09-14T10:15:26.556Z,98284.28
2022-09-14T10:16:41.481Z,98297.69
2022-09-14T10:18:21.005Z,98282.00
2022-09-14T10:19:32.273Z,98268.41
2022-09-14T10:20:46.070Z,98265.56
2022-09-14T10:22:28.923Z,98268.59
2022-09-14T10:23:41.595Z,98271.03
2022-09-14T10:25:02.156Z,98294.13
2022-09-14T10:26:15.383Z,98293.38
2022-09-14T10:27:42.100Z,98300.78
2022-09-14T10:28:49.331Z,98279.59
2022-09-14T10:29:56.713Z,98266.50
2022-09-14T10:31:18.964Z,98299.72
2022-09-14T10:32:26.307Z,98282.22
2022-09-14T10:33:30.619Z,98293.31
2022-09-14T10:34:34.872Z,98277.78
2022-09-14T10:35:53.675Z,98305.25
2022-09-14T10:37:19.384Z,98266.00
2022-09-14T10:38:56.406Z,98303.66
2022-09-14T10:40:17.546Z,98270.47
2022-09-14T10:41:46.650Z,98305.47
2022-09-14T10:43:17.419Z,98297.44
2022-09-14T10:44:46.182Z,98256.13
2022-09-14T10:46:02.777Z,98262.00
2022-09-14T10:48:11.726Z,98291.75
2022-09-14T10:49:38.010Z,98287.44
2022-09-14T10:51:15.273Z,98290.63
2022-09-14T10:52:39.999Z,98288.34
2022-09-14T10:54:28.806Z,98293.16
2022-09-14T10:57:16.956Z,98292.16
2022-09-14T10:59:06.663Z,98288.47
2022-09-14T11:00:19.739Z,98281.03
2022-09-14T11:02:12.678Z,98292.56
2022-09-14T11:03:34.876Z,98282.56
2022-09-14T11:04:53.775Z,98286.16
2022-09-14T11:06:06.910Z,98271.19
2022-09-14T11:07:22.840Z,98256.06
2022-09-14T11:08:36.233Z,98256.50
2022-09-14T11:10:12.320Z,98248.88
2022-09-14T11:11:42.559Z,98286.69
2022-09-14T11:12:54.893Z,98291.28
2022-09-14T11:14:04.685Z,98278.63
2022-09-14T11:15:35.980Z,98251.44
2022-09-14T11:17:39.476Z,98278.03
2022-09-14T11:19:20.276Z,98266.06
2022-09-14T11:20:37.491Z,98247.75
2022-09-14T11:22:06.166Z,98243.19
2022-09-14T11:24:05.807Z,98276.25
2022-09-14T11:25:20.167Z,98275.03
2022-09-14T11:26:42.226Z,98258.19
2022-09-14T11:28:09.404Z,98251.09
2022-09-14T11:29:32.132Z,98243.38
2022-09-14T11:30:52.645Z,98263.59
2022-09-14T11:32:21.768Z,98272.31
2022-09-14T11:33:41.553Z,98265.03
2022-09-14T11:35:20.169Z,98265.88
2022-09-14T11:36:31.246Z,98273.41
2022-09-14T11:37:47.083Z,98275.06
2022-09-14T11:39:07.653Z,98261.56
2022-09-14T11:41:05.240Z,98270.72
2022-09-14T11:42:49.367Z,98260.38
2022-09-14T11:44:26.939Z,98226.75
2022-09-14T11:45:37.816Z,98253.34
2022-09-14T11:47:17.808Z,98262.94
2022-09-14T11:48:45.025Z,98263.97
2022-09-14T11:50:19.087Z,98264.19
2022-09-14T11:51:40.353Z,98260.06
2022-09-14T11:52:44.672Z,98219.72
2022-09-14T11:53:50.095Z,98232.84
2022-09-14T11:54:58.960Z,98252.59
2022-09-14T14:54:21.903Z,98199.09
2022-09-14T14:55:27.734Z,98193.66
2022-09-14T14:56:31.723Z,98190.34
2022-09-14T14:57:38.661Z,98156.56
2022-09-14T14:58:47.607Z,98167.84
2022-09-14T14:59:53.368Z,98191.84
2022-09-14T15:00:57.716Z,98193.03
2022-09-14T15:02:02.055Z,98197.59
2022-09-14T15:03:09.310Z,98192.84
2022-09-14T15:04:13.112Z,98194.53
2022-09-14T15:05:18.291Z,98204.91
2022-09-14T15:06:28.348Z,98202.00
2022-09-14T15:07:35.872Z,98196.63
2022-09-14T15:08:42.064Z,98202.00
2022-09-14T15:09:48.164Z,98205.38
2022-09-14T15:10:58.057Z,98198.06
2022-09-14T15:12:03.574Z,98174.31
2022-09-14T15:13:10.573Z,98201.81
2022-09-14T15:14:18.614Z,98198.28
2022-09-14T15:15:27.482Z,98159.75
2022-09-14T15:16:31.721Z,98194.13
2022-09-14T15:17:36.353Z,98181.00
2022-09-14T15:18:41.216Z,98197.44
2022-09-14T15:19:45.763Z,98187.28
2022-09-14T15:20:49.677Z,98177.84
2022-09-14T15:21:57.288Z,98182.19
2022-09-14T15:23:04.281Z,98167.41
2022-09-14T15:24:09.303Z,98205.94
2022-09-14T15:25:14.901Z,98200.56
2022-09-14T15:26:18.657Z,98204.28
2022-09-14T15:27:22.825Z,98206.53
2022-09-14T15:28:27.322Z,98182.34
2022-09-14T15:29:31.862Z,98204.84
2022-09-14T15:30:35.624Z,98186.91
2022-09-14T15:31:41.131Z,98209.22
2022-09-14T15:32:45.439Z,98207.56
2022-09-14T15:33:49.259Z,98204.44
2022-09-14T15:34:55.834Z,98196.91
2022-09-14T15:35:59.766Z,98211.47
2022-09-14T15:37:03.559Z,98210.66
2022-09-14T15:38:07.262Z,98192.50
2022-09-14T15:39:17.158Z,98213.53
2022-09-14T15:40:20.937Z,98187.31
2022-09-14T15:41:24.748Z,98195.25
2022-09-14T15:42:28.861Z,98172.69
2022-09-14T15:43:32.799Z,98166.66
2022-09-14T15:44:37.258Z,98189.81
2022-09-14T15:45:41.983Z,98202.25
2022-09-14T15:46:48.999Z,98208.09
2022-09-14T15:47:52.624Z,98182.06
2022-09-14T15:48:56.567Z,98207.44
2022-09-14T15:50:00.791Z,98199.97
2022-09-14T15:51:11.948Z,98206.81
2022-09-14T15:52:15.548Z,98192.69
2022-09-14T15:53:19.633Z,98201.63
2022-09-14T15:54:26.650Z,98191.03
2022-09-14T15:55:30.740Z,98200.13
2022-09-14T15:56:34.431Z,98192.44
2022-09-14T15:57:40.575Z,98170.47
2022-09-14T15:58:47.901Z,98178.63
2022-09-14T15:59:55.195Z,98185.75
2022-09-14T16:00:58.957Z,98185.34
2022-09-14T16:02:03.482Z,98188.84
2022-09-14T16:03:07.142Z,98191.56
2022-09-14T16:04:11.949Z,98182.84
2022-09-14T16:05:19.246Z,98187.19
2022-09-14T16:06:23.142Z,98183.19
2022-09-14T16:07:29.563Z,98182.16
2022-09-14T16:08:35.992Z,98187.31
2022-09-14T16:09:41.450Z,98184.00
2022-09-14T16:10:45.322Z,98182.34
2022-09-14T16:11:49.868Z,98191.25
2022-09-14T16:12:56.140Z,98179.03
2022-09-14T16:13:59.990Z,98176.88
2022-09-14T16:15:03.816Z,98186.63
2022-09-14T16:16:11.334Z,98193.72
2022-09-14T16:17:15.797Z,98180.00
2022-09-14T16:18:19.997Z,98186.00
2022-09-14T16:19:24.238Z,98171.63
2022-09-14T16:20:28.480Z,98179.34
2022-09-14T16:21:32.418Z,98174.13
2022-09-14T16:22:36.885Z,98184.53
2022-09-14T16:23:47.542Z,98180.00
2022-09-14T16:24:51.206Z,98171.84
2022-09-14T16:25:54.831Z,98175.56
2022-09-14T16:26:59.245Z,98180.56
2022-09-14T16:28:03.093Z,98180.56
2022-09-14T16:29:08.835Z,98178.06
2022-09-14T16:30:13.154Z,98173.91
2022-09-14T16:31:24.980Z,98178.25
2022-09-14T16:32:28.928Z,98187.19
2022-09-14T16:33:38.835Z,98185.50
2022-09-14T16:34:42.972Z,98175.56
2022-09-14T16:35:46.708Z,98177.63
2022-09-14T16:36:50.834Z,98178.63
2022-09-14T16:37:54.587Z,98174.09
2022-09-14T16:39:05.481Z,98176.97
2022-09-14T16:40:09.889Z,98177.16
2022-09-14T16:41:15.031Z,98186.72
2022-09-14T16:42:20.555Z,98185.88
2022-09-14T16:43:24.590Z,98175.69
2022-09-14T16:44:29.137Z,98183.59
2022-09-14T16:45:32.810Z,98174.47
2022-09-14T16:46:36.504Z,98181.91
2022-09-14T16:47:40.439Z,98185.44
2022-09-14T16:48:47.672Z,98180.25